sensor_id;sensor_type;location;lat;lon;timestamp;P1;durP1;ratioP1;P2;durP2;ratioP2
7029;SDS011;3556;53.500;10.176;2023-06-14T00:01:47;4.77;;;3.30;;
7029;SDS011;3556;53.500;10.176;2023-06-14T00:04:13;8.70;;;3.50;;
7029;SDS011;3556;53.500;10.176;2023-06-14T00:06:41;4.77;;;3.27;;
7029;SDS011;3556;53.500;10.176;2023-06-14T00:09:10;6.00;;;3.17;;
7029;SDS011;3556;53.500;10.176;2023-06-14T00:11:42;6.27;;;3.00;;
7029;SDS011;3556;53.500;10.176;2023-06-14T00:14:07;4.10;;;2.97;;
7029;SDS011;3556;53.500;10.176;2023-06-14T00:16:33;3.83;;;3.43;;
7029;SDS011;3556;53.500;10.176;2023-06-14T00:19:00;6.47;;;3.50;;
7029;SDS011;3556;53.500;10.176;2023-06-14T00:21:29;7.67;;;5.30;;
7029;SDS011;3556;53.500;10.176;2023-06-14T00:23:57;12.07;;;7.70;;
7029;SDS011;3556;53.500;10.176;2023-06-14T00:26:23;8.37;;;6.37;;
7029;SDS011;3556;53.500;10.176;2023-06-14T00:28:49;6.70;;;4.33;;
7029;SDS011;3556;53.500;10.176;2023-06-14T00:31:14;7.43;;;5.60;;
7029;SDS011;3556;53.500;10.176;2023-06-14T00:33:40;6.90;;;5.60;;
7029;SDS011;3556;53.500;10.176;2023-06-14T00:36:06;7.10;;;4.57;;
7029;SDS011;3556;53.500;10.176;2023-06-14T00:38:31;9.13;;;4.80;;
7029;SDS011;3556;53.500;10.176;2023-06-14T00:40:57;4.80;;;4.20;;
7029;SDS011;3556;53.500;10.176;2023-06-14T00:43:23;4.27;;;3.67;;
7029;SDS011;3556;53.500;10.176;2023-06-14T00:45:48;7.23;;;3.73;;
7029;SDS011;3556;53.500;10.176;2023-06-14T00:48:16;5.33;;;3.77;;
7029;SDS011;3556;53.500;10.176;2023-06-14T00:50:42;5.30;;;3.57;;
7029;SDS011;3556;53.500;10.176;2023-06-14T00:53:10;4.90;;;3.40;;
7029;SDS011;3556;53.500;10.176;2023-06-14T00:55:42;5.47;;;3.47;;
7029;SDS011;3556;53.500;10.176;2023-06-14T00:58:08;7.80;;;3.70;;
7029;SDS011;3556;53.500;10.176;2023-06-14T01:00:35;5.60;;;3.50;;
7029;SDS011;3556;53.500;10.176;2023-06-14T01:03:01;6.70;;;3.20;;
7029;SDS011;3556;53.500;10.176;2023-06-14T01:05:27;6.80;;;3.37;;
7029;SDS011;3556;53.500;10.176;2023-06-14T01:13:10;4.63;;;3.30;;
7029;SDS011;3556;53.500;10.176;2023-06-14T01:15:50;3.60;;;2.90;;
7029;SDS011;3556;53.500;10.176;2023-06-14T01:18:16;3.67;;;3.37;;
7029;SDS011;3556;53.500;10.176;2023-06-14T01:20:43;3.60;;;3.30;;
7029;SDS011;3556;53.500;10.176;2023-06-14T01:23:10;5.10;;;3.90;;
7029;SDS011;3556;53.500;10.176;2023-06-14T01:25:40;4.70;;;3.40;;
7029;SDS011;3556;53.500;10.176;2023-06-14T01:28:09;3.60;;;3.20;;
7029;SDS011;3556;53.500;10.176;2023-06-14T01:30:38;5.10;;;3.40;;
7029;SDS011;3556;53.500;10.176;2023-06-14T01:33:09;3.80;;;3.10;;
7029;SDS011;3556;53.500;10.176;2023-06-14T01:35:43;4.20;;;3.53;;
7029;SDS011;3556;53.500;10.176;2023-06-14T01:38:09;5.80;;;2.90;;
7029;SDS011;3556;53.500;10.176;2023-06-14T01:40:35;4.23;;;3.30;;
7029;SDS011;3556;53.500;10.176;2023-06-14T01:43:02;6.93;;;3.30;;
7029;SDS011;3556;53.500;10.176;2023-06-14T01:45:29;3.70;;;3.30;;
7029;SDS011;3556;53.500;10.176;2023-06-14T01:47:55;4.23;;;2.93;;
7029;SDS011;3556;53.500;10.176;2023-06-14T01:50:21;6.90;;;3.57;;
7029;SDS011;3556;53.500;10.176;2023-06-14T01:52:47;6.60;;;3.47;;
7029;SDS011;3556;53.500;10.176;2023-06-14T01:55:12;5.30;;;3.30;;
7029;SDS011;3556;53.500;10.176;2023-06-14T01:57:38;5.07;;;3.60;;
7029;SDS011;3556;53.500;10.176;2023-06-14T02:00:04;8.03;;;3.60;;
7029;SDS011;3556;53.500;10.176;2023-06-14T02:02:37;6.60;;;3.30;;
7029;SDS011;3556;53.500;10.176;2023-06-14T02:05:03;4.63;;;3.07;;
7029;SDS011;3556;53.500;10.176;2023-06-14T02:07:29;6.20;;;3.70;;
7029;SDS011;3556;53.500;10.176;2023-06-14T02:09:54;3.63;;;3.23;;
7029;SDS011;3556;53.500;10.176;2023-06-14T02:12:20;3.93;;;3.60;;
7029;SDS011;3556;53.500;10.176;2023-06-14T02:14:46;3.70;;;3.40;;
7029;SDS011;3556;53.500;10.176;2023-06-14T02:17:12;3.60;;;3.30;;
7029;SDS011;3556;53.500;10.176;2023-06-14T02:19:37;6.40;;;3.90;;
7029;SDS011;3556;53.500;10.176;2023-06-14T02:22:03;5.77;;;3.50;;
7029;SDS011;3556;53.500;10.176;2023-06-14T02:24:29;9.00;;;3.87;;
7029;SDS011;3556;53.500;10.176;2023-06-14T02:26:55;8.00;;;3.93;;
7029;SDS011;3556;53.500;10.176;2023-06-14T02:29:20;9.23;;;3.73;;
7029;SDS011;3556;53.500;10.176;2023-06-14T02:31:46;4.40;;;4.00;;
7029;SDS011;3556;53.500;10.176;2023-06-14T02:34:13;5.77;;;3.90;;
7029;SDS011;3556;53.500;10.176;2023-06-14T02:36:41;15.57;;;3.80;;
7029;SDS011;3556;53.500;10.176;2023-06-14T02:39:07;4.13;;;3.70;;
7029;SDS011;3556;53.500;10.176;2023-06-14T02:41:36;5.33;;;3.67;;
7029;SDS011;3556;53.500;10.176;2023-06-14T02:44:02;8.67;;;3.70;;
7029;SDS011;3556;53.500;10.176;2023-06-14T02:46:28;20.53;;;4.17;;
7029;SDS011;3556;53.500;10.176;2023-06-14T02:48:54;9.63;;;4.20;;
7029;SDS011;3556;53.500;10.176;2023-06-14T02:51:20;4.17;;;3.60;;
7029;SDS011;3556;53.500;10.176;2023-06-14T02:53:46;8.60;;;3.90;;
7029;SDS011;3556;53.500;10.176;2023-06-14T02:56:11;8.00;;;4.00;;
7029;SDS011;3556;53.500;10.176;2023-06-14T02:58:37;13.07;;;4.50;;
7029;SDS011;3556;53.500;10.176;2023-06-14T03:01:04;4.23;;;3.83;;
7029;SDS011;3556;53.500;10.176;2023-06-14T03:03:32;5.40;;;4.07;;
7029;SDS011;3556;53.500;10.176;2023-06-14T03:05:58;7.47;;;3.87;;
7029;SDS011;3556;53.500;10.176;2023-06-14T03:08:29;4.70;;;4.10;;
7029;SDS011;3556;53.500;10.176;2023-06-14T03:10:56;10.57;;;4.20;;
7029;SDS011;3556;53.500;10.176;2023-06-14T03:13:22;8.70;;;4.20;;
7029;SDS011;3556;53.500;10.176;2023-06-14T03:15:48;5.07;;;3.93;;
7029;SDS011;3556;53.500;10.176;2023-06-14T03:18:16;7.13;;;4.40;;
7029;SDS011;3556;53.500;10.176;2023-06-14T03:20:42;8.47;;;3.97;;
7029;SDS011;3556;53.500;10.176;2023-06-14T03:23:10;7.63;;;4.73;;
7029;SDS011;3556;53.500;10.176;2023-06-14T03:25:36;8.73;;;4.80;;
7029;SDS011;3556;53.500;10.176;2023-06-14T03:28:03;5.30;;;4.00;;
7029;SDS011;3556;53.500;10.176;2023-06-14T03:30:30;5.87;;;4.13;;
7029;SDS011;3556;53.500;10.176;2023-06-14T03:32:56;8.03;;;4.60;;
7029;SDS011;3556;53.500;10.176;2023-06-14T03:35:23;5.77;;;4.60;;
7029;SDS011;3556;53.500;10.176;2023-06-14T03:37:49;8.87;;;5.10;;
7029;SDS011;3556;53.500;10.176;2023-06-14T03:40:15;4.63;;;4.20;;
7029;SDS011;3556;53.500;10.176;2023-06-14T03:42:43;16.40;;;4.70;;
7029;SDS011;3556;53.500;10.176;2023-06-14T03:45:09;10.53;;;4.60;;
7029;SDS011;3556;53.500;10.176;2023-06-14T03:47:35;11.03;;;4.70;;
7029;SDS011;3556;53.500;10.176;2023-06-14T03:50:01;7.70;;;4.47;;
7029;SDS011;3556;53.500;10.176;2023-06-14T03:52:28;6.27;;;3.87;;
7029;SDS011;3556;53.500;10.176;2023-06-14T03:54:54;7.30;;;4.30;;
7029;SDS011;3556;53.500;10.176;2023-06-14T03:57:20;6.27;;;4.07;;
7029;SDS011;3556;53.500;10.176;2023-06-14T03:59:47;9.90;;;4.60;;
7029;SDS011;3556;53.500;10.176;2023-06-14T04:02:12;4.30;;;3.90;;
7029;SDS011;3556;53.500;10.176;2023-06-14T04:04:41;4.33;;;3.93;;
7029;SDS011;3556;53.500;10.176;2023-06-14T04:07:10;7.60;;;4.30;;
7029;SDS011;3556;53.500;10.176;2023-06-14T04:09:37;6.80;;;4.30;;
7029;SDS011;3556;53.500;10.176;2023-06-14T04:12:03;5.60;;;4.07;;
7029;SDS011;3556;53.500;10.176;2023-06-14T04:14:29;6.10;;;4.50;;
7029;SDS011;3556;53.500;10.176;2023-06-14T04:16:55;6.37;;;4.00;;
7029;SDS011;3556;53.500;10.176;2023-06-14T04:19:21;7.10;;;3.97;;
7029;SDS011;3556;53.500;10.176;2023-06-14T04:21:47;8.10;;;4.20;;
7029;SDS011;3556;53.500;10.176;2023-06-14T04:24:13;8.60;;;4.27;;
7029;SDS011;3556;53.500;10.176;2023-06-14T04:26:42;9.23;;;4.27;;
7029;SDS011;3556;53.500;10.176;2023-06-14T04:29:12;7.57;;;3.80;;
7029;SDS011;3556;53.500;10.176;2023-06-14T04:31:45;6.33;;;3.60;;
7029;SDS011;3556;53.500;10.176;2023-06-14T04:34:11;6.83;;;4.20;;
7029;SDS011;3556;53.500;10.176;2023-06-14T04:36:43;10.53;;;4.30;;
7029;SDS011;3556;53.500;10.176;2023-06-14T04:39:14;6.87;;;4.40;;
7029;SDS011;3556;53.500;10.176;2023-06-14T04:41:43;6.40;;;4.83;;
7029;SDS011;3556;53.500;10.176;2023-06-14T04:44:09;11.20;;;4.57;;
7029;SDS011;3556;53.500;10.176;2023-06-14T04:46:35;7.43;;;4.60;;
7029;SDS011;3556;53.500;10.176;2023-06-14T04:49:16;8.27;;;4.03;;
7029;SDS011;3556;53.500;10.176;2023-06-14T04:51:42;8.67;;;4.40;;
7029;SDS011;3556;53.500;10.176;2023-06-14T04:54:09;7.97;;;4.37;;
7029;SDS011;3556;53.500;10.176;2023-06-14T04:56:38;10.23;;;4.20;;
7029;SDS011;3556;53.500;10.176;2023-06-14T04:59:03;6.00;;;4.20;;
7029;SDS011;3556;53.500;10.176;2023-06-14T05:01:30;8.70;;;4.30;;
7029;SDS011;3556;53.500;10.176;2023-06-14T05:03:59;5.00;;;4.00;;
7029;SDS011;3556;53.500;10.176;2023-06-14T05:06:25;5.87;;;4.00;;
7029;SDS011;3556;53.500;10.176;2023-06-14T05:08:52;5.07;;;3.83;;
7029;SDS011;3556;53.500;10.176;2023-06-14T05:11:18;5.00;;;3.77;;
7029;SDS011;3556;53.500;10.176;2023-06-14T05:13:44;10.43;;;3.97;;
7029;SDS011;3556;53.500;10.176;2023-06-14T05:16:10;6.23;;;3.67;;
7029;SDS011;3556;53.500;10.176;2023-06-14T05:18:36;5.30;;;4.00;;
7029;SDS011;3556;53.500;10.176;2023-06-14T05:21:03;6.67;;;4.20;;
7029;SDS011;3556;53.500;10.176;2023-06-14T05:23:30;5.83;;;3.50;;
7029;SDS011;3556;53.500;10.176;2023-06-14T05:25:56;11.13;;;4.10;;
7029;SDS011;3556;53.500;10.176;2023-06-14T05:28:22;10.73;;;3.70;;
7029;SDS011;3556;53.500;10.176;2023-06-14T05:30:48;5.50;;;4.03;;
7029;SDS011;3556;53.500;10.176;2023-06-14T05:33:13;8.80;;;4.33;;
7029;SDS011;3556;53.500;10.176;2023-06-14T05:35:39;4.50;;;3.87;;
7029;SDS011;3556;53.500;10.176;2023-06-14T05:38:05;4.00;;;3.60;;
7029;SDS011;3556;53.500;10.176;2023-06-14T05:40:32;7.90;;;3.50;;
7029;SDS011;3556;53.500;10.176;2023-06-14T05:42:58;9.23;;;4.47;;
7029;SDS011;3556;53.500;10.176;2023-06-14T05:45:24;7.60;;;4.30;;
7029;SDS011;3556;53.500;10.176;2023-06-14T05:47:49;3.70;;;3.33;;
7029;SDS011;3556;53.500;10.176;2023-06-14T05:50:15;5.37;;;3.70;;
7029;SDS011;3556;53.500;10.176;2023-06-14T05:52:41;10.33;;;3.73;;
7029;SDS011;3556;53.500;10.176;2023-06-14T05:55:06;4.43;;;3.30;;
7029;SDS011;3556;53.500;10.176;2023-06-14T05:57:32;5.07;;;3.73;;
7029;SDS011;3556;53.500;10.176;2023-06-14T05:59:58;10.30;;;3.93;;
7029;SDS011;3556;53.500;10.176;2023-06-14T06:02:24;5.60;;;3.70;;
7029;SDS011;3556;53.500;10.176;2023-06-14T06:04:49;5.87;;;3.60;;
7029;SDS011;3556;53.500;10.176;2023-06-14T06:07:15;4.23;;;3.83;;
7029;SDS011;3556;53.500;10.176;2023-06-14T06:09:41;5.63;;;3.70;;
7029;SDS011;3556;53.500;10.176;2023-06-14T06:12:07;6.47;;;3.43;;
7029;SDS011;3556;53.500;10.176;2023-06-14T06:14:32;4.70;;;3.37;;
7029;SDS011;3556;53.500;10.176;2023-06-14T06:16:58;6.50;;;3.83;;
7029;SDS011;3556;53.500;10.176;2023-06-14T06:19:24;4.83;;;3.70;;
7029;SDS011;3556;53.500;10.176;2023-06-14T06:21:50;3.87;;;3.27;;
7029;SDS011;3556;53.500;10.176;2023-06-14T06:24:16;5.43;;;3.60;;
7029;SDS011;3556;53.500;10.176;2023-06-14T06:26:41;3.77;;;3.47;;
7029;SDS011;3556;53.500;10.176;2023-06-14T06:29:07;4.70;;;3.60;;
7029;SDS011;3556;53.500;10.176;2023-06-14T06:31:33;8.10;;;3.50;;
7029;SDS011;3556;53.500;10.176;2023-06-14T06:33:58;5.50;;;3.60;;
7029;SDS011;3556;53.500;10.176;2023-06-14T06:36:24;3.20;;;2.90;;
7029;SDS011;3556;53.500;10.176;2023-06-14T06:38:50;3.90;;;2.97;;
7029;SDS011;3556;53.500;10.176;2023-06-14T06:41:16;6.83;;;2.90;;
7029;SDS011;3556;53.500;10.176;2023-06-14T06:43:41;5.43;;;3.10;;
7029;SDS011;3556;53.500;10.176;2023-06-14T06:46:07;4.03;;;3.00;;
7029;SDS011;3556;53.500;10.176;2023-06-14T06:48:33;3.23;;;2.93;;
7029;SDS011;3556;53.500;10.176;2023-06-14T06:50:58;7.50;;;2.90;;
7029;SDS011;3556;53.500;10.176;2023-06-14T06:53:24;6.70;;;3.37;;
7029;SDS011;3556;53.500;10.176;2023-06-14T06:55:50;5.50;;;2.97;;
7029;SDS011;3556;53.500;10.176;2023-06-14T06:58:15;4.77;;;3.00;;
7029;SDS011;3556;53.500;10.176;2023-06-14T07:00:41;3.87;;;2.87;;
7029;SDS011;3556;53.500;10.176;2023-06-14T07:03:07;5.50;;;2.80;;
7029;SDS011;3556;53.500;10.176;2023-06-14T07:05:33;3.80;;;2.73;;
7029;SDS011;3556;53.500;10.176;2023-06-14T07:07:58;3.07;;;2.83;;
7029;SDS011;3556;53.500;10.176;2023-06-14T07:10:25;4.33;;;3.00;;
7029;SDS011;3556;53.500;10.176;2023-06-14T07:12:50;3.00;;;2.80;;
7029;SDS011;3556;53.500;10.176;2023-06-14T07:15:16;3.97;;;2.87;;
7029;SDS011;3556;53.500;10.176;2023-06-14T07:17:42;2.97;;;2.63;;
7029;SDS011;3556;53.500;10.176;2023-06-14T07:20:08;8.73;;;2.80;;
7029;SDS011;3556;53.500;10.176;2023-06-14T07:22:40;3.03;;;2.80;;
7029;SDS011;3556;53.500;10.176;2023-06-14T07:25:08;3.03;;;2.70;;
7029;SDS011;3556;53.500;10.176;2023-06-14T07:27:34;5.47;;;2.97;;
7029;SDS011;3556;53.500;10.176;2023-06-14T07:30:00;3.97;;;2.47;;
7029;SDS011;3556;53.500;10.176;2023-06-14T07:32:25;6.70;;;2.80;;
7029;SDS011;3556;53.500;10.176;2023-06-14T07:34:51;2.60;;;2.40;;
7029;SDS011;3556;53.500;10.176;2023-06-14T07:37:17;4.30;;;2.83;;
7029;SDS011;3556;53.500;10.176;2023-06-14T07:39:42;2.80;;;2.60;;
7029;SDS011;3556;53.500;10.176;2023-06-14T07:42:08;3.50;;;2.60;;
7029;SDS011;3556;53.500;10.176;2023-06-14T07:44:34;3.03;;;2.70;;
7029;SDS011;3556;53.500;10.176;2023-06-14T07:46:59;3.10;;;2.90;;
7029;SDS011;3556;53.500;10.176;2023-06-14T07:49:26;3.20;;;2.90;;
7029;SDS011;3556;53.500;10.176;2023-06-14T07:51:52;2.57;;;2.30;;
7029;SDS011;3556;53.500;10.176;2023-06-14T07:54:18;12.80;;;3.43;;
7029;SDS011;3556;53.500;10.176;2023-06-14T07:56:44;5.27;;;2.87;;
7029;SDS011;3556;53.500;10.176;2023-06-14T07:59:10;4.27;;;2.90;;
7029;SDS011;3556;53.500;10.176;2023-06-14T08:01:35;3.47;;;3.17;;
7029;SDS011;3556;53.500;10.176;2023-06-14T08:04:01;4.03;;;2.90;;
7029;SDS011;3556;53.500;10.176;2023-06-14T08:06:27;2.73;;;2.53;;
7029;SDS011;3556;53.500;10.176;2023-06-14T08:08:53;3.17;;;2.83;;
7029;SDS011;3556;53.500;10.176;2023-06-14T08:11:18;4.20;;;3.07;;
7029;SDS011;3556;53.500;10.176;2023-06-14T08:13:44;3.43;;;3.13;;
7029;SDS011;3556;53.500;10.176;2023-06-14T08:16:09;8.20;;;2.97;;
7029;SDS011;3556;53.500;10.176;2023-06-14T08:18:35;6.80;;;3.10;;
7029;SDS011;3556;53.500;10.176;2023-06-14T08:21:01;4.10;;;3.20;;
7029;SDS011;3556;53.500;10.176;2023-06-14T08:23:28;3.47;;;2.70;;
7029;SDS011;3556;53.500;10.176;2023-06-14T08:25:53;5.57;;;2.90;;
7029;SDS011;3556;53.500;10.176;2023-06-14T08:28:20;5.03;;;2.80;;
7029;SDS011;3556;53.500;10.176;2023-06-14T08:30:45;4.23;;;3.30;;
7029;SDS011;3556;53.500;10.176;2023-06-14T08:33:11;3.13;;;2.93;;
7029;SDS011;3556;53.500;10.176;2023-06-14T08:35:37;3.33;;;3.13;;
7029;SDS011;3556;53.500;10.176;2023-06-14T08:38:04;3.27;;;3.07;;
7029;SDS011;3556;53.500;10.176;2023-06-14T08:40:30;5.90;;;3.30;;
7029;SDS011;3556;53.500;10.176;2023-06-14T08:42:56;7.83;;;3.50;;
7029;SDS011;3556;53.500;10.176;2023-06-14T08:45:22;5.13;;;3.40;;
7029;SDS011;3556;53.500;10.176;2023-06-14T08:47:49;3.63;;;3.33;;
7029;SDS011;3556;53.500;10.176;2023-06-14T08:50:18;2.93;;;2.73;;
7029;SDS011;3556;53.500;10.176;2023-06-14T08:52:45;4.00;;;3.57;;
7029;SDS011;3556;53.500;10.176;2023-06-14T08:55:15;13.53;;;3.50;;
7029;SDS011;3556;53.500;10.176;2023-06-14T08:57:42;3.80;;;3.50;;
7029;SDS011;3556;53.500;10.176;2023-06-14T09:00:09;3.97;;;3.43;;
7029;SDS011;3556;53.500;10.176;2023-06-14T09:02:38;3.60;;;2.73;;
7029;SDS011;3556;53.500;10.176;2023-06-14T09:05:08;4.80;;;3.20;;
7029;SDS011;3556;53.500;10.176;2023-06-14T09:07:35;4.20;;;3.10;;
7029;SDS011;3556;53.500;10.176;2023-06-14T09:10:10;12.43;;;3.60;;
7029;SDS011;3556;53.500;10.176;2023-06-14T09:12:37;4.03;;;3.30;;
7029;SDS011;3556;53.500;10.176;2023-06-14T09:15:04;4.70;;;3.40;;
7029;SDS011;3556;53.500;10.176;2023-06-14T09:17:34;4.03;;;3.00;;
7029;SDS011;3556;53.500;10.176;2023-06-14T09:20:04;7.77;;;3.30;;
7029;SDS011;3556;53.500;10.176;2023-06-14T09:22:31;4.00;;;3.30;;
7029;SDS011;3556;53.500;10.176;2023-06-14T09:24:57;6.80;;;3.20;;
7029;SDS011;3556;53.500;10.176;2023-06-14T09:27:25;7.93;;;3.43;;
7029;SDS011;3556;53.500;10.176;2023-06-14T09:29:51;4.77;;;3.50;;
7029;SDS011;3556;53.500;10.176;2023-06-14T09:32:17;3.53;;;3.23;;
7029;SDS011;3556;53.500;10.176;2023-06-14T09:34:45;3.53;;;3.23;;
7029;SDS011;3556;53.500;10.176;2023-06-14T09:37:11;12.60;;;3.47;;
7029;SDS011;3556;53.500;10.176;2023-06-14T09:39:49;5.30;;;3.43;;
7029;SDS011;3556;53.500;10.176;2023-06-14T09:42:16;4.93;;;3.20;;
7029;SDS011;3556;53.500;10.176;2023-06-14T09:44:44;6.73;;;3.80;;
7029;SDS011;3556;53.500;10.176;2023-06-14T09:47:12;13.43;;;3.77;;
7029;SDS011;3556;53.500;10.176;2023-06-14T09:49:39;5.20;;;3.60;;
7029;SDS011;3556;53.500;10.176;2023-06-14T09:52:05;3.63;;;3.30;;
7029;SDS011;3556;53.500;10.176;2023-06-14T09:54:35;10.63;;;3.87;;
7029;SDS011;3556;53.500;10.176;2023-06-14T09:57:11;7.47;;;3.33;;
7029;SDS011;3556;53.500;10.176;2023-06-14T09:59:40;5.80;;;3.57;;
7029;SDS011;3556;53.500;10.176;2023-06-14T10:02:34;3.73;;;3.00;;
7029;SDS011;3556;53.500;10.176;2023-06-14T10:05:05;3.80;;;3.33;;
7029;SDS011;3556;53.500;10.176;2023-06-14T10:07:40;13.07;;;3.57;;
7029;SDS011;3556;53.500;10.176;2023-06-14T10:10:09;7.03;;;3.70;;
7029;SDS011;3556;53.500;10.176;2023-06-14T10:12:36;5.70;;;3.60;;
7029;SDS011;3556;53.500;10.176;2023-06-14T10:15:02;7.90;;;3.60;;
7029;SDS011;3556;53.500;10.176;2023-06-14T10:22:43;5.67;;;3.30;;
7029;SDS011;3556;53.500;10.176;2023-06-14T10:25:28;5.30;;;3.67;;
7029;SDS011;3556;53.500;10.176;2023-06-14T10:33:39;14.00;;;3.50;;
7029;SDS011;3556;53.500;10.176;2023-06-14T10:38:57;10.00;;;3.60;;
7029;SDS011;3556;53.500;10.176;2023-06-14T10:41:25;7.47;;;3.70;;
7029;SDS011;3556;53.500;10.176;2023-06-14T10:43:54;3.70;;;3.50;;
7029;SDS011;3556;53.500;10.176;2023-06-14T10:46:38;5.10;;;3.43;;
7029;SDS011;3556;53.500;10.176;2023-06-14T10:49:05;5.97;;;3.30;;
7029;SDS011;3556;53.500;10.176;2023-06-14T10:51:44;7.67;;;3.60;;
7029;SDS011;3556;53.500;10.176;2023-06-14T10:54:14;10.87;;;3.90;;
7029;SDS011;3556;53.500;10.176;2023-06-14T10:56:47;4.50;;;4.07;;
7029;SDS011;3556;53.500;10.176;2023-06-14T10:59:13;7.60;;;3.97;;
7029;SDS011;3556;53.500;10.176;2023-06-14T11:04:52;7.47;;;3.63;;
7029;SDS011;3556;53.500;10.176;2023-06-14T11:12:56;5.37;;;3.60;;
7029;SDS011;3556;53.500;10.176;2023-06-14T11:15:30;6.67;;;3.73;;
7029;SDS011;3556;53.500;10.176;2023-06-14T11:17:57;5.23;;;3.30;;
7029;SDS011;3556;53.500;10.176;2023-06-14T11:20:26;14.27;;;3.70;;
7029;SDS011;3556;53.500;10.176;2023-06-14T11:22:53;8.93;;;4.00;;
7029;SDS011;3556;53.500;10.176;2023-06-14T11:25:19;5.87;;;3.50;;
7029;SDS011;3556;53.500;10.176;2023-06-14T11:27:45;3.13;;;2.83;;
7029;SDS011;3556;53.500;10.176;2023-06-14T11:30:12;4.37;;;3.50;;
7029;SDS011;3556;53.500;10.176;2023-06-14T11:32:38;7.40;;;3.17;;
7029;SDS011;3556;53.500;10.176;2023-06-14T11:35:04;4.10;;;3.57;;
7029;SDS011;3556;53.500;10.176;2023-06-14T11:37:31;6.23;;;3.47;;
7029;SDS011;3556;53.500;10.176;2023-06-14T11:40:00;10.60;;;3.37;;
7029;SDS011;3556;53.500;10.176;2023-06-14T11:42:26;3.77;;;3.30;;
7029;SDS011;3556;53.500;10.176;2023-06-14T11:44:53;7.10;;;3.17;;
7029;SDS011;3556;53.500;10.176;2023-06-14T11:47:19;9.23;;;3.77;;
7029;SDS011;3556;53.500;10.176;2023-06-14T11:49:45;10.90;;;3.90;;
7029;SDS011;3556;53.500;10.176;2023-06-14T11:52:11;6.23;;;3.47;;
7029;SDS011;3556;53.500;10.176;2023-06-14T11:54:37;9.33;;;3.43;;
7029;SDS011;3556;53.500;10.176;2023-06-14T11:57:05;6.47;;;3.40;;
7029;SDS011;3556;53.500;10.176;2023-06-14T11:59:38;10.83;;;3.07;;
7029;SDS011;3556;53.500;10.176;2023-06-14T12:02:04;3.63;;;3.33;;
7029;SDS011;3556;53.500;10.176;2023-06-14T12:04:31;4.07;;;3.47;;
7029;SDS011;3556;53.500;10.176;2023-06-14T12:06:57;8.93;;;3.43;;
7029;SDS011;3556;53.500;10.176;2023-06-14T12:09:34;4.50;;;3.70;;
7029;SDS011;3556;53.500;10.176;2023-06-14T12:12:00;4.83;;;3.47;;
7029;SDS011;3556;53.500;10.176;2023-06-14T12:14:30;9.27;;;3.40;;
7029;SDS011;3556;53.500;10.176;2023-06-14T12:17:06;10.70;;;3.60;;
7029;SDS011;3556;53.500;10.176;2023-06-14T12:19:32;3.47;;;3.17;;
7029;SDS011;3556;53.500;10.176;2023-06-14T12:22:01;13.50;;;3.83;;
7029;SDS011;3556;53.500;10.176;2023-06-14T12:24:30;7.83;;;3.33;;
7029;SDS011;3556;53.500;10.176;2023-06-14T12:26:59;9.53;;;3.93;;
7029;SDS011;3556;53.500;10.176;2023-06-14T12:29:27;8.23;;;3.87;;
7029;SDS011;3556;53.500;10.176;2023-06-14T12:31:56;9.63;;;5.40;;
7029;SDS011;3556;53.500;10.176;2023-06-14T12:34:26;6.37;;;3.40;;
7029;SDS011;3556;53.500;10.176;2023-06-14T12:36:55;8.93;;;4.60;;
7029;SDS011;3556;53.500;10.176;2023-06-14T12:39:21;7.93;;;3.87;;
7029;SDS011;3556;53.500;10.176;2023-06-14T12:41:47;4.17;;;3.43;;
7029;SDS011;3556;53.500;10.176;2023-06-14T12:44:16;6.20;;;3.53;;
7029;SDS011;3556;53.500;10.176;2023-06-14T12:46:42;3.90;;;3.50;;
7029;SDS011;3556;53.500;10.176;2023-06-14T12:49:09;4.23;;;3.80;;
7029;SDS011;3556;53.500;10.176;2023-06-14T12:51:36;4.70;;;3.70;;
7029;SDS011;3556;53.500;10.176;2023-06-14T12:54:02;4.00;;;3.33;;
7029;SDS011;3556;53.500;10.176;2023-06-14T12:56:28;9.63;;;3.90;;
7029;SDS011;3556;53.500;10.176;2023-06-14T12:58:53;5.97;;;3.20;;
7029;SDS011;3556;53.500;10.176;2023-06-14T13:01:19;8.33;;;3.40;;
7029;SDS011;3556;53.500;10.176;2023-06-14T13:03:47;8.00;;;3.27;;
7029;SDS011;3556;53.500;10.176;2023-06-14T13:06:14;3.93;;;2.83;;
7029;SDS011;3556;53.500;10.176;2023-06-14T13:08:40;3.77;;;3.03;;
7029;SDS011;3556;53.500;10.176;2023-06-14T13:11:06;4.07;;;3.23;;
7029;SDS011;3556;53.500;10.176;2023-06-14T13:13:32;3.47;;;3.17;;
7029;SDS011;3556;53.500;10.176;2023-06-14T13:15:58;4.40;;;3.03;;
7029;SDS011;3556;53.500;10.176;2023-06-14T13:18:23;4.20;;;3.00;;
7029;SDS011;3556;53.500;10.176;2023-06-14T13:20:49;8.13;;;3.37;;
7029;SDS011;3556;53.500;10.176;2023-06-14T13:23:15;4.10;;;3.20;;
7029;SDS011;3556;53.500;10.176;2023-06-14T13:25:41;3.30;;;3.07;;
7029;SDS011;3556;53.500;10.176;2023-06-14T13:28:07;3.33;;;2.80;;
7029;SDS011;3556;53.500;10.176;2023-06-14T13:30:33;4.87;;;3.07;;
7029;SDS011;3556;53.500;10.176;2023-06-14T13:32:59;5.07;;;3.20;;
7029;SDS011;3556;53.500;10.176;2023-06-14T13:35:25;3.57;;;3.37;;
7029;SDS011;3556;53.500;10.176;2023-06-14T13:37:51;10.03;;;3.60;;
7029;SDS011;3556;53.500;10.176;2023-06-14T13:40:17;7.90;;;3.50;;
7029;SDS011;3556;53.500;10.176;2023-06-14T13:42:43;3.87;;;3.50;;
7029;SDS011;3556;53.500;10.176;2023-06-14T13:45:10;3.20;;;3.00;;
7029;SDS011;3556;53.500;10.176;2023-06-14T13:47:37;8.23;;;3.60;;
7029;SDS011;3556;53.500;10.176;2023-06-14T13:50:03;6.23;;;3.30;;
7029;SDS011;3556;53.500;10.176;2023-06-14T13:52:29;4.37;;;3.50;;
7029;SDS011;3556;53.500;10.176;2023-06-14T13:54:55;3.70;;;3.07;;
7029;SDS011;3556;53.500;10.176;2023-06-14T13:57:21;5.07;;;3.60;;
7029;SDS011;3556;53.500;10.176;2023-06-14T13:59:46;6.63;;;3.03;;
7029;SDS011;3556;53.500;10.176;2023-06-14T14:02:13;5.57;;;3.30;;
7029;SDS011;3556;53.500;10.176;2023-06-14T14:04:39;8.37;;;2.57;;
7029;SDS011;3556;53.500;10.176;2023-06-14T14:07:06;3.40;;;3.17;;
7029;SDS011;3556;53.500;10.176;2023-06-14T14:09:32;7.03;;;3.10;;
7029;SDS011;3556;53.500;10.176;2023-06-14T14:11:59;3.27;;;3.00;;
7029;SDS011;3556;53.500;10.176;2023-06-14T14:14:25;5.30;;;3.57;;
7029;SDS011;3556;53.500;10.176;2023-06-14T14:16:52;6.30;;;3.30;;
7029;SDS011;3556;53.500;10.176;2023-06-14T14:19:19;3.70;;;3.40;;
7029;SDS011;3556;53.500;10.176;2023-06-14T14:21:46;6.23;;;3.70;;
7029;SDS011;3556;53.500;10.176;2023-06-14T14:24:11;3.90;;;3.10;;
7029;SDS011;3556;53.500;10.176;2023-06-14T14:26:38;5.67;;;2.90;;
7029;SDS011;3556;53.500;10.176;2023-06-14T14:29:03;7.73;;;2.97;;
7029;SDS011;3556;53.500;10.176;2023-06-14T14:31:29;5.13;;;2.90;;
7029;SDS011;3556;53.500;10.176;2023-06-14T14:33:55;11.63;;;3.83;;
7029;SDS011;3556;53.500;10.176;2023-06-14T14:36:21;11.00;;;2.97;;
7029;SDS011;3556;53.500;10.176;2023-06-14T14:38:46;3.70;;;3.00;;
7029;SDS011;3556;53.500;10.176;2023-06-14T14:41:12;6.67;;;2.87;;
7029;SDS011;3556;53.500;10.176;2023-06-14T14:43:38;6.80;;;3.23;;
7029;SDS011;3556;53.500;10.176;2023-06-14T14:46:04;6.00;;;3.07;;
7029;SDS011;3556;53.500;10.176;2023-06-14T14:48:30;4.33;;;2.73;;
7029;SDS011;3556;53.500;10.176;2023-06-14T14:50:56;5.43;;;3.10;;
7029;SDS011;3556;53.500;10.176;2023-06-14T14:53:22;6.50;;;3.63;;
7029;SDS011;3556;53.500;10.176;2023-06-14T14:55:47;3.37;;;3.10;;
7029;SDS011;3556;53.500;10.176;2023-06-14T14:58:14;3.20;;;2.80;;
7029;SDS011;3556;53.500;10.176;2023-06-14T15:00:43;3.27;;;2.97;;
7029;SDS011;3556;53.500;10.176;2023-06-14T15:03:10;3.30;;;3.00;;
7029;SDS011;3556;53.500;10.176;2023-06-14T15:05:36;8.20;;;3.27;;
7029;SDS011;3556;53.500;10.176;2023-06-14T15:08:02;5.27;;;3.43;;
7029;SDS011;3556;53.500;10.176;2023-06-14T15:10:28;4.10;;;3.40;;
7029;SDS011;3556;53.500;10.176;2023-06-14T15:12:54;3.80;;;3.27;;
7029;SDS011;3556;53.500;10.176;2023-06-14T15:15:21;5.00;;;3.40;;
7029;SDS011;3556;53.500;10.176;2023-06-14T15:17:47;8.33;;;3.27;;
7029;SDS011;3556;53.500;10.176;2023-06-14T15:20:13;3.47;;;3.20;;
7029;SDS011;3556;53.500;10.176;2023-06-14T15:22:39;3.60;;;3.27;;
7029;SDS011;3556;53.500;10.176;2023-06-14T15:25:06;3.10;;;2.80;;
7029;SDS011;3556;53.500;10.176;2023-06-14T15:27:31;5.17;;;2.90;;